To NAV CANADA Home Page Login to a new session Search on AWWS site Feedback and Comments Disclaimer Vers la page française équivalente Tips FAQ What's new on the site To the Forecasts and Observations / NOTAM section To "File a Flight Plan" website Publications and other links Update of the User's profile FIC Telephone Numbers My Weather Data Folder Route Weather Data Regional Weather Data Local Weather Data To the Forecasts and Observations / NOTAM section
Request Generated 08/28/2016 at 22:17:35 UTC . Weather information available at that time is displayed.

METAR/TAF

BURWASH/YT    (show WxCam)

METAR CYDB 282200Z 28008KT 13SM SCT013 BKN038TCU 10/09 A3009 RMK
SF3TCU4 DIST SH ALQDS SLP218=
SPECI CYDB 282152Z 29008KT 15SM SCT013 OVC038TCU 10/08 A3009 RMK
SF3TCU5 DIST SH ALQDS SLP218=
METAR CYDB 282100Z AUTO 30007KT 9SM RA OVC046 09/08 A3010 RMK SLP220=
SPECI CYDB 282032Z 30009KT 8SM -SHRA SCT012 BKN040TCU OVC055 09/08
A3009 RMK SF3TCU3SC2 SLP218=
METAR CYDB 282000Z 31009KT 8SM -SHRA FEW011 BKN030TCU OVC050 09/08
A3009 RMK SF2TCU5SC1 SLP219=

TAF AMD CYDB 281903Z 2819/2906 31005KT P6SM SCT025 BKN040 TEMPO
2819/2821 P6SM -SHRA SCT008 BKN020 OVC040
FM282100 32010KT P6SM BKN050 TEMPO 2821/2906 P6SM -SHRA SCT020
OVC050
RMK NXT FCST BY 290000Z=
Your time UTC time
Weather data provided by Environment Canada and NAV CANADA